Hauptseite
METAR-TAF:

METAR-TAF

Flughäfen :

Hawarden Airport

Hawarden, Wales

Breite: 53-10N, Länge: 002-59W, Höhe: 10 m

Beobachtung

Neuester Wetterbericht von vor 23 Minuten, um 07:50 UTC
Windstille
Temperatur 3°C
Luftfeuchtigkeit 100%
Luftdruck 1029 hPa
Sichtweite 10 km oder mehr
Nebel in der Nähe

METAR: EGNR 180750Z 00000KT 9999 VCFG NSC 03/03 Q1029

Zeit: 09:13 (08:13 UTC)

Prognose

Neuester Wetterbericht von vor 2 Stunden und 48 Minuten, um 05:25 UTC
Gültige Prognose vom 18 um 06 UTC bis 18 um 15 UTC
Wind 3 kt aus unterschiedlichen Richtungen
Sichtweite 10 km oder mehr
Leicht bewölkt in der Höhe von 3000 ft
Zeitweise
vom 18 um 06 UTC bis 18 um 09 UTC
Sichtweite: 6000 m
Wahrscheinlichkeit 30%
vom 18 um 06 UTC bis 18 um 08 UTC
Sichtweite: 0300 m
Geschlossene Wolkendecke in der Höhe von 100 ft
Nebel

TAF: EGNR 180525Z 1806/1815 VRB03KT 9999 FEW030 TEMPO 1806/1809 6000 PROB30 1806/1808 0300 FG OVC001

Wetterbeobachtungen und Prognosen von mehr als 4000 Flughäfen (METAR und TAF Bericht).

Die verfügbaren Stationen werden durch gelbe und rote Markierungen auf der Karte dargestellt.

Führen Sie die Maus auf sie, um den Namen der Station zu sehen.

Darauf klicken, um die Beobachtung von Wetterbeobachtungen und Prognosen zu sehen.

Um die Karte zu ändern : klicken Sie auf den grünen Tasten mit einem schwarzen Kreuz Zum Vergrößern, auf den grünen Button mit einem Gedankenstrich zu verkleinern, oder auf die grünen Pfeile für benachbarte Karten.


METAR-TAF: